Mariann — LAGW6 — position and weather

sailwx.info

Track history (hours):
 
Tides and Currents Weather Stations Pressure Air Temp Water Temp Dewpoint Dewpoint Depression Visibility Wind Speed Wind Dir Waves Ship Positions

Mariann

Last reported at 2018-Apr-19 19:01 UTC. Time now 2018-Apr-25 06:59 UTC.
Position N 01°17' E 103°21'.

Length 228 m; draft 10.7 m.

Type: Tanker. MMSI: 257917000.

Date/timePositionNaut miles runAvg speedWind from/ knotsBaromVisibWave heightAir tempDewpointWater temp
2018-Apr-19 19:01N 01°17' E 103°21'011.7
2018-Apr-19 18:59N 01°17' E 103°21'811.7
2018-Apr-19 18:17N 01°14' E 103°29'412.4
2018-Apr-19 17:59N 01°12' E 103°32'612.9
2018-Apr-19 17:31N 01°11' E 103°39'612.3
2018-Apr-19 16:59N 01°08' E 103°44'714.5
2018-Apr-19 16:30N 01°11' E 103°50'612.1
2018-Apr-19 15:59N 01°15' E 103°56'1 0.1
2018-Apr-19 03:35N 01°16' E 103°55'0 0.8
2018-Apr-19 03:30N 01°16' E 103°55'2 4.3
2018-Apr-19 02:58N 01°15' E 103°57'  
2018-Apr-13 18:32N 21°59' E 121°13'010.6
2018-Apr-13 18:30N 21°59' E 121°13'5 9.8
2018-Apr-13 17:58N 22°04' E 121°15'2410.1
2018-Apr-13 15:37N 22°24' E 121°29'211.9
2018-Apr-13 15:26N 22°26' E 121°31'55312.2
2018-Apr-11 18:00N 31°23' E 123°56'714.2
2018-Apr-11 17:28N 31°30' E 123°55'1114.2
2018-Apr-11 16:41N 31°41' E 123°54'414.1
2018-Apr-11 16:25N 31°45' E 123°55'40312.9
2018-Apr-10 09:09N 38°21' E 122°21'213.1
2018-Apr-10 09:00N 38°22' E 122°19'813.2
2018-Apr-10 08:23N 38°28' E 122°12'513.2
2018-Apr-10 08:00N 38°32' E 122°07'613.1
2018-Apr-10 07:30N 38°36' E 122°01'713.0
2018-Apr-10 07:00N 38°41' E 121°55'813.1
2018-Apr-10 06:25N 38°46' E 121°48'512.9
2018-Apr-10 06:00N 38°51' E 121°45'8 7.6
2018-Apr-10 05:00N 38°58' E 121°40'1 0.1
2018-Apr-10 00:40N 38°58' E 121°39'0 0.0
2018-Apr-10 00:28N 38°58' E 121°39'0 0.0
2018-Apr-09 23:58N 38°58' E 121°39'0 0.0
2018-Apr-09 23:28N 38°58' E 121°39'0 0.0
2018-Apr-09 22:46N 38°58' E 121°39'0 0.0
2018-Apr-09 22:28N 38°58' E 121°39'0 0.0
2018-Apr-09 21:57N 38°58' E 121°39'0 0.0
2018-Apr-09 20:45N 38°58' E 121°39'0 0.0
2018-Apr-09 20:30N 38°58' E 121°39'0 0.0
2018-Apr-09 19:44N 38°58' E 121°39'0 0.0
2018-Apr-09 19:20N 38°58' E 121°39'  
Track history (hours):
 
Tides and Currents Weather Stations Pressure Air Temp Water Temp Dewpoint Dewpoint Depression Visibility Wind Speed Wind Dir Waves Ship Positions

Mariann

Last reported at 2018-Apr-19 19:01 UTC. Time now 2018-Apr-25 06:59 UTC.
Position N 01°17' E 103°21'.

Length 228 m; draft 10.7 m.

Type: Tanker. MMSI: 257917000.

Date/timePositionNaut miles runAvg speedWind from/ knotsBaromVisibWave heightAir tempDewpointWater temp
2018-Apr-19 19:01N 01°17' E 103°21'011.7
2018-Apr-19 18:59N 01°17' E 103°21'811.7
2018-Apr-19 18:17N 01°14' E 103°29'412.4
2018-Apr-19 17:59N 01°12' E 103°32'612.9
2018-Apr-19 17:31N 01°11' E 103°39'612.3
2018-Apr-19 16:59N 01°08' E 103°44'714.5
2018-Apr-19 16:30N 01°11' E 103°50'612.1
2018-Apr-19 15:59N 01°15' E 103°56'1 0.1
2018-Apr-19 03:35N 01°16' E 103°55'0 0.8
2018-Apr-19 03:30N 01°16' E 103°55'2 4.3
2018-Apr-19 02:58N 01°15' E 103°57'  
2018-Apr-13 18:32N 21°59' E 121°13'010.6
2018-Apr-13 18:30N 21°59' E 121°13'5 9.8
2018-Apr-13 17:58N 22°04' E 121°15'2410.1
2018-Apr-13 15:37N 22°24' E 121°29'211.9
2018-Apr-13 15:26N 22°26' E 121°31'55312.2
2018-Apr-11 18:00N 31°23' E 123°56'714.2
2018-Apr-11 17:28N 31°30' E 123°55'1114.2
2018-Apr-11 16:41N 31°41' E 123°54'414.1
2018-Apr-11 16:25N 31°45' E 123°55'40312.9
2018-Apr-10 09:09N 38°21' E 122°21'213.1
2018-Apr-10 09:00N 38°22' E 122°19'813.2
2018-Apr-10 08:23N 38°28' E 122°12'513.2
2018-Apr-10 08:00N 38°32' E 122°07'613.1
2018-Apr-10 07:30N 38°36' E 122°01'713.0
2018-Apr-10 07:00N 38°41' E 121°55'813.1
2018-Apr-10 06:25N 38°46' E 121°48'512.9
2018-Apr-10 06:00N 38°51' E 121°45'8 7.6
2018-Apr-10 05:00N 38°58' E 121°40'1 0.1
2018-Apr-10 00:40N 38°58' E 121°39'0 0.0
2018-Apr-10 00:28N 38°58' E 121°39'0 0.0
2018-Apr-09 23:58N 38°58' E 121°39'0 0.0
2018-Apr-09 23:28N 38°58' E 121°39'0 0.0
2018-Apr-09 22:46N 38°58' E 121°39'0 0.0
2018-Apr-09 22:28N 38°58' E 121°39'0 0.0
2018-Apr-09 21:57N 38°58' E 121°39'0 0.0
2018-Apr-09 20:45N 38°58' E 121°39'0 0.0
2018-Apr-09 20:30N 38°58' E 121°39'0 0.0
2018-Apr-09 19:44N 38°58' E 121°39'0 0.0
2018-Apr-09 19:20N 38°58' E 121°39'  

Dump ship's entire track history